createdAt,value
2022-10-14T00:03:39.602Z,35.53
2022-10-14T00:13:41.271Z,34.80
2022-10-14T00:23:43.807Z,35.83
2022-10-14T00:33:45.797Z,36.35
2022-10-14T00:43:59.795Z,36.70
2022-10-14T00:54:01.780Z,37.72
2022-10-14T01:04:09.491Z,36.08
2022-10-14T01:14:45.872Z,36.47
2022-10-14T01:25:10.722Z,36.67
2022-10-14T01:35:21.584Z,37.83
2022-10-14T01:45:27.958Z,36.47
2022-10-14T01:55:35.235Z,35.50
2022-10-14T02:05:42.574Z,35.80
2022-10-14T02:16:49.703Z,35.00
2022-10-14T02:26:55.009Z,36.30
2022-10-14T02:37:00.707Z,34.63
2022-10-14T02:47:04.641Z,36.28
2022-10-14T02:57:06.247Z,35.65
2022-10-14T03:07:09.043Z,33.53
2022-10-14T03:17:11.794Z,34.23
2022-10-14T03:27:13.335Z,35.00
2022-10-14T03:37:14.909Z,37.60
2022-10-14T03:47:16.679Z,36.13
2022-10-14T03:57:18.303Z,37.28
2022-10-14T04:07:20.194Z,36.95
2022-10-14T04:17:24.721Z,34.05
2022-10-14T04:27:26.391Z,34.03
2022-10-14T04:37:29.207Z,35.38
2022-10-14T04:47:31.168Z,32.60
2022-10-14T04:57:35.066Z,32.58
2022-10-14T05:07:39.656Z,33.55
2022-10-14T05:17:44.822Z,33.88
2022-10-14T05:27:46.955Z,37.05
2022-10-14T05:37:48.819Z,38.03
2022-10-14T05:47:50.839Z,35.05
2022-10-14T05:57:56.682Z,34.75
2022-10-14T06:07:58.899Z,33.30
2022-10-14T06:18:00.569Z,32.60
2022-10-14T06:28:05.550Z,34.15
2022-10-14T06:38:07.138Z,30.75
2022-10-14T06:48:13.415Z,29.70
2022-10-14T06:58:29.102Z,30.40
2022-10-14T07:08:31.101Z,30.13
2022-10-14T07:18:33.066Z,31.42
2022-10-14T07:28:34.771Z,28.52
2022-10-14T07:38:37.287Z,26.17
2022-10-14T07:48:57.713Z,25.93
2022-10-14T07:58:59.779Z,23.80
2022-10-14T08:09:08.305Z,22.47
2022-10-14T08:19:14.663Z,20.13
2022-10-14T08:29:17.149Z,19.88
2022-10-14T08:39:19.772Z,22.55
2022-10-14T08:49:31.398Z,19.15
2022-10-14T08:59:41.269Z,19.30
2022-10-14T09:09:50.317Z,17.73
2022-10-14T09:20:00.653Z,16.83
2022-10-14T09:30:10.301Z,16.90
2022-10-14T09:40:13.215Z,17.77
2022-10-14T09:50:25.702Z,16.08
2022-10-14T10:00:34.587Z,14.05
2022-10-14T10:10:36.943Z,14.17
2022-10-14T10:20:38.510Z,14.93
2022-10-14T10:30:58.211Z,14.70
2022-10-14T10:41:16.837Z,13.85
2022-10-14T10:51:46.451Z,12.82
2022-10-14T11:02:25.623Z,11.50
2022-10-14T11:12:52.577Z,11.10
2022-10-14T11:23:20.420Z,11.25
2022-10-14T11:33:46.821Z,9.90
2022-10-14T11:44:29.090Z,10.73
2022-10-14T11:54:36.922Z,11.13
2022-10-14T12:05:20.057Z,11.75
2022-10-14T12:15:25.982Z,13.07
2022-10-14T12:25:36.804Z,15.07
2022-10-14T12:35:52.402Z,15.98
2022-10-14T12:45:58.428Z,16.60
2022-10-14T12:56:02.320Z,17.73
2022-10-14T13:06:37.123Z,17.27
2022-10-14T13:16:38.850Z,16.30
2022-10-14T13:26:53.971Z,17.20
2022-10-14T13:37:11.801Z,17.02
2022-10-14T13:47:15.017Z,20.23
2022-10-14T13:57:47.975Z,20.02
2022-10-14T14:18:01.082Z,16.80
2022-10-14T14:28:06.749Z,17.98
2022-10-14T14:38:34.456Z,17.63
2022-10-14T14:48:38.560Z,18.33
2022-10-14T14:58:55.501Z,19.15
2022-10-14T15:09:10.401Z,20.55
2022-10-14T15:19:37.234Z,26.83
2022-10-14T15:29:40.321Z,22.08
2022-10-14T15:49:45.219Z,22.52
2022-10-14T15:59:46.832Z,23.23
2022-10-14T16:09:52.688Z,25.60
2022-10-14T16:19:56.096Z,27.25
2022-10-14T16:30:13.545Z,25.60
2022-10-14T16:40:25.815Z,27.83
2022-10-14T16:50:28.659Z,27.33
2022-10-14T17:00:30.324Z,29.52
2022-10-14T17:10:38.915Z,31.73
2022-10-14T17:20:40.534Z,36.95
2022-10-14T17:30:43.043Z,37.13
2022-10-14T17:40:44.694Z,34.83
2022-10-14T17:50:49.784Z,33.35
2022-10-14T18:00:51.652Z,32.25
2022-10-14T18:10:53.409Z,33.30
2022-10-14T18:20:57.276Z,30.92
2022-10-14T18:31:04.392Z,32.92
2022-10-14T18:41:11.723Z,33.85
2022-10-14T18:51:17.104Z,37.75
2022-10-14T19:01:38.430Z,41.97
2022-10-14T19:11:44.519Z,46.33
2022-10-14T19:21:49.268Z,48.65
2022-10-14T19:31:54.926Z,46.67
2022-10-14T19:42:01.824Z,47.60
2022-10-14T19:52:04.529Z,47.65
2022-10-14T20:02:08.281Z,51.93
2022-10-14T20:12:09.958Z,49.22
2022-10-14T20:22:11.752Z,51.05
2022-10-14T20:32:13.327Z,50.85
2022-10-14T20:42:16.467Z,50.45
2022-10-14T20:52:18.324Z,51.50
2022-10-14T21:02:21.732Z,52.28
2022-10-14T21:12:23.567Z,50.22
2022-10-14T21:22:25.608Z,49.42
2022-10-14T21:32:30.524Z,47.97
2022-10-14T21:42:32.089Z,50.92
2022-10-14T21:52:36.544Z,48.42
2022-10-14T22:02:41.248Z,47.05
2022-10-14T22:12:42.844Z,40.58
2022-10-14T22:22:45.287Z,40.42
2022-10-14T22:32:46.923Z,40.40
2022-10-14T22:42:51.424Z,38.55
2022-10-14T22:52:54.041Z,37.13
2022-10-14T23:02:55.871Z,37.87
2022-10-14T23:12:57.538Z,39.67
2022-10-14T23:23:02.393Z,39.88
2022-10-14T23:33:05.626Z,39.60
2022-10-14T23:43:09.022Z,41.65
